sensor_id;sensor_type;location;lat;lon;timestamp;pressure;altitude;pressure_sealevel;temperature;humidity
33161;BME280;19522;45.656;11.302;2023-12-20T00:00:57;98413.34;;;4.07;75.38
33161;BME280;19522;45.656;11.302;2023-12-20T00:03:26;98353.84;;;4.20;73.07
33161;BME280;19522;45.656;11.302;2023-12-20T00:05:51;98402.03;;;4.59;71.66
33161;BME280;19522;45.656;11.302;2023-12-20T00:08:17;98370.59;;;4.14;72.60
33161;BME280;19522;45.656;11.302;2023-12-20T00:10:45;98392.38;;;4.11;73.67
33161;BME280;19522;45.656;11.302;2023-12-20T00:13:11;98378.03;;;3.92;74.56
33161;BME280;19522;45.656;11.302;2023-12-20T00:15:37;98368.88;;;3.85;75.17
33161;BME280;19522;45.656;11.302;2023-12-20T00:18:02;98338.94;;;4.08;74.20
33161;BME280;19522;45.656;11.302;2023-12-20T00:20:28;98378.81;;;4.40;72.82
33161;BME280;19522;45.656;11.302;2023-12-20T00:22:57;98372.25;;;4.43;72.86
33161;BME280;19522;45.656;11.302;2023-12-20T00:25:23;98367.50;;;4.09;73.70
33161;BME280;19522;45.656;11.302;2023-12-20T00:27:49;98369.44;;;4.16;73.49
33161;BME280;19522;45.656;11.302;2023-12-20T00:30:14;98359.72;;;4.33;73.14
33161;BME280;19522;45.656;11.302;2023-12-20T00:32:40;98357.13;;;4.42;72.08
33161;BME280;19522;45.656;11.302;2023-12-20T00:35:14;98360.44;;;4.35;72.53
33161;BME280;19522;45.656;11.302;2023-12-20T00:37:40;98351.13;;;4.02;73.80
33161;BME280;19522;45.656;11.302;2023-12-20T00:40:06;98323.41;;;4.01;73.40
33161;BME280;19522;45.656;11.302;2023-12-20T00:42:35;98358.47;;;4.28;73.16
33161;BME280;19522;45.656;11.302;2023-12-20T00:45:01;98328.66;;;4.21;73.02
33161;BME280;19522;45.656;11.302;2023-12-20T00:47:28;98349.06;;;3.86;74.67
33161;BME280;19522;45.656;11.302;2023-12-20T00:49:53;98335.75;;;3.94;74.34
33161;BME280;19522;45.656;11.302;2023-12-20T00:52:19;98329.34;;;3.67;75.08
33161;BME280;19522;45.656;11.302;2023-12-20T00:54:44;98334.59;;;3.97;74.54
33161;BME280;19522;45.656;11.302;2023-12-20T00:57:10;98321.97;;;3.79;74.88
33161;BME280;19522;45.656;11.302;2023-12-20T00:59:35;98292.75;;;3.66;74.35
33161;BME280;19522;45.656;11.302;2023-12-20T01:02:01;98328.09;;;3.62;75.61
33161;BME280;19522;45.656;11.302;2023-12-20T01:04:27;98317.63;;;3.68;76.17
33161;BME280;19522;45.656;11.302;2023-12-20T01:06:53;98303.84;;;4.09;73.61
33161;BME280;19522;45.656;11.302;2023-12-20T01:09:19;98284.66;;;4.22;71.88
33161;BME280;19522;45.656;11.302;2023-12-20T01:11:45;98254.97;;;3.96;72.23
33161;BME280;19522;45.656;11.302;2023-12-20T01:14:13;98307.59;;;3.98;73.17
33161;BME280;19522;45.656;11.302;2023-12-20T01:16:39;98297.22;;;3.48;75.10
33161;BME280;19522;45.656;11.302;2023-12-20T01:19:04;98322.25;;;3.38;76.27
33161;BME280;19522;45.656;11.302;2023-12-20T01:21:30;98281.22;;;3.08;77.44
33161;BME280;19522;45.656;11.302;2023-12-20T01:23:55;98302.94;;;3.63;77.10
33161;BME280;19522;45.656;11.302;2023-12-20T01:26:21;98253.66;;;3.82;74.63
33161;BME280;19522;45.656;11.302;2023-12-20T01:28:46;98304.00;;;3.80;75.56
33161;BME280;19522;45.656;11.302;2023-12-20T01:31:12;98294.69;;;3.46;76.66
33161;BME280;19522;45.656;11.302;2023-12-20T01:33:37;98266.09;;;3.07;76.97
33161;BME280;19522;45.656;11.302;2023-12-20T01:36:03;98255.09;;;3.01;77.67
33161;BME280;19522;45.656;11.302;2023-12-20T01:38:29;98285.41;;;3.68;76.08
33161;BME280;19522;45.656;11.302;2023-12-20T01:40:54;98295.81;;;3.71;76.28
33161;BME280;19522;45.656;11.302;2023-12-20T01:43:20;98288.66;;;3.62;76.35
33161;BME280;19522;45.656;11.302;2023-12-20T01:45:47;98296.47;;;3.55;76.54
33161;BME280;19522;45.656;11.302;2023-12-20T01:48:13;98266.88;;;3.37;76.09
33161;BME280;19522;45.656;11.302;2023-12-20T01:50:40;98297.13;;;3.67;76.08
33161;BME280;19522;45.656;11.302;2023-12-20T01:53:08;98278.22;;;4.15;74.72
33161;BME280;19522;45.656;11.302;2023-12-20T01:55:38;98287.75;;;4.27;73.41
33161;BME280;19522;45.656;11.302;2023-12-20T01:58:05;98265.59;;;4.15;73.65
33161;BME280;19522;45.656;11.302;2023-12-20T02:00:31;98212.34;;;3.83;73.63
33161;BME280;19522;45.656;11.302;2023-12-20T02:03:00;98272.00;;;3.86;74.90
33161;BME280;19522;45.656;11.302;2023-12-20T02:05:26;98246.47;;;3.45;76.61
33161;BME280;19522;45.656;11.302;2023-12-20T02:07:56;98236.44;;;3.74;75.41
33161;BME280;19522;45.656;11.302;2023-12-20T02:10:21;98222.47;;;3.71;75.33
33161;BME280;19522;45.656;11.302;2023-12-20T02:12:47;98258.53;;;3.96;75.13
33161;BME280;19522;45.656;11.302;2023-12-20T02:15:13;98213.47;;;3.62;75.78
33161;BME280;19522;45.656;11.302;2023-12-20T02:17:39;98260.00;;;4.09;74.81
33161;BME280;19522;45.656;11.302;2023-12-20T02:20:05;98249.16;;;4.00;74.85
33161;BME280;19522;45.656;11.302;2023-12-20T02:22:31;98255.13;;;3.94;75.17
33161;BME280;19522;45.656;11.302;2023-12-20T02:24:57;98254.31;;;3.94;74.93
33161;BME280;19522;45.656;11.302;2023-12-20T02:27:23;98235.84;;;3.81;75.31
33161;BME280;19522;45.656;11.302;2023-12-20T02:29:49;98220.84;;;3.60;75.81
33161;BME280;19522;45.656;11.302;2023-12-20T02:32:16;98244.41;;;3.66;76.65
33161;BME280;19522;45.656;11.302;2023-12-20T02:34:42;98242.78;;;3.55;77.06
33161;BME280;19522;45.656;11.302;2023-12-20T02:37:07;98213.97;;;3.48;77.02
33161;BME280;19522;45.656;11.302;2023-12-20T02:39:33;98204.06;;;3.48;76.59
33161;BME280;19522;45.656;11.302;2023-12-20T02:41:58;98225.97;;;3.53;76.86
33161;BME280;19522;45.656;11.302;2023-12-20T02:44:24;98236.38;;;3.28;78.13
33161;BME280;19522;45.656;11.302;2023-12-20T02:46:50;98213.53;;;3.15;78.53
33161;BME280;19522;45.656;11.302;2023-12-20T02:49:15;98222.50;;;3.33;78.16
33161;BME280;19522;45.656;11.302;2023-12-20T02:51:41;98224.53;;;3.59;76.84
33161;BME280;19522;45.656;11.302;2023-12-20T02:54:07;98200.28;;;3.69;75.47
33161;BME280;19522;45.656;11.302;2023-12-20T02:56:33;98207.19;;;3.71;74.66
33161;BME280;19522;45.656;11.302;2023-12-20T02:58:59;98181.00;;;3.27;76.34
33161;BME280;19522;45.656;11.302;2023-12-20T03:01:24;98215.16;;;3.35;77.31
33161;BME280;19522;45.656;11.302;2023-12-20T03:03:50;98195.00;;;3.31;77.98
33161;BME280;19522;45.656;11.302;2023-12-20T03:06:18;98189.50;;;3.23;78.28
33161;BME280;19522;45.656;11.302;2023-12-20T03:08:44;98129.22;;;3.17;76.34
33161;BME280;19522;45.656;11.302;2023-12-20T03:11:09;98190.28;;;3.89;75.78
33161;BME280;19522;45.656;11.302;2023-12-20T03:13:38;98180.66;;;3.86;74.91
33161;BME280;19522;45.656;11.302;2023-12-20T03:16:12;98174.53;;;3.48;75.98
33161;BME280;19522;45.656;11.302;2023-12-20T03:18:38;98116.34;;;3.21;74.98
33161;BME280;19522;45.656;11.302;2023-12-20T03:21:04;98186.25;;;3.47;76.52
33161;BME280;19522;45.656;11.302;2023-12-20T03:23:30;98189.03;;;3.27;77.82
33161;BME280;19522;45.656;11.302;2023-12-20T03:26:01;98174.16;;;3.15;78.48
33161;BME280;19522;45.656;11.302;2023-12-20T03:28:30;98172.41;;;3.24;78.58
33161;BME280;19522;45.656;11.302;2023-12-20T03:30:58;98173.53;;;3.21;78.82
33161;BME280;19522;45.656;11.302;2023-12-20T03:33:27;98163.13;;;3.64;77.35
33161;BME280;19522;45.656;11.302;2023-12-20T03:35:52;98164.91;;;3.73;76.62
33161;BME280;19522;45.656;11.302;2023-12-20T03:38:23;98126.72;;;3.34;76.61
33161;BME280;19522;45.656;11.302;2023-12-20T03:40:50;98153.25;;;3.83;76.12
33161;BME280;19522;45.656;11.302;2023-12-20T03:45:50;98147.97;;;3.73;75.98
33161;BME280;19522;45.656;11.302;2023-12-20T03:48:16;98075.00;;;3.14;76.63
33161;BME280;19522;45.656;11.302;2023-12-20T03:50:42;98129.25;;;3.35;77.18
33161;BME280;19522;45.656;11.302;2023-12-20T03:53:07;98146.31;;;3.44;77.49
33161;BME280;19522;45.656;11.302;2023-12-20T03:55:33;98137.41;;;3.43;77.65
33161;BME280;19522;45.656;11.302;2023-12-20T03:57:58;98139.09;;;3.45;78.14
33161;BME280;19522;45.656;11.302;2023-12-20T04:00:24;98107.56;;;3.47;77.62
33161;BME280;19522;45.656;11.302;2023-12-20T04:02:49;98103.97;;;3.56;76.92
33161;BME280;19522;45.656;11.302;2023-12-20T04:05:15;98133.09;;;3.79;76.21
33161;BME280;19522;45.656;11.302;2023-12-20T04:07:43;98128.38;;;3.81;76.55
33161;BME280;19522;45.656;11.302;2023-12-20T04:10:09;98095.22;;;3.90;74.63
33161;BME280;19522;45.656;11.302;2023-12-20T04:12:34;98068.63;;;3.79;74.15
33161;BME280;19522;45.656;11.302;2023-12-20T04:15:04;98052.09;;;3.73;73.71
33161;BME280;19522;45.656;11.302;2023-12-20T04:17:38;98070.28;;;3.62;75.30
33161;BME280;19522;45.656;11.302;2023-12-20T04:20:05;97956.06;;;2.95;75.13
33161;BME280;19522;45.656;11.302;2023-12-20T04:22:31;97943.34;;;2.97;75.80
33161;BME280;19522;45.656;11.302;2023-12-20T04:24:56;97941.06;;;3.20;74.84
33161;BME280;19522;45.656;11.302;2023-12-20T04:27:25;98011.97;;;3.72;73.85
33161;BME280;19522;45.656;11.302;2023-12-20T04:29:51;98109.63;;;4.25;74.16
33161;BME280;19522;45.656;11.302;2023-12-20T04:32:16;98056.47;;;3.93;74.20
33161;BME280;19522;45.656;11.302;2023-12-20T04:34:41;98105.59;;;4.29;73.82
33161;BME280;19522;45.656;11.302;2023-12-20T04:37:07;98102.72;;;4.23;74.51
33161;BME280;19522;45.656;11.302;2023-12-20T04:39:32;98021.56;;;3.74;74.24
33161;BME280;19522;45.656;11.302;2023-12-20T04:41:58;98098.44;;;4.12;74.26
33161;BME280;19522;45.656;11.302;2023-12-20T04:44:24;98072.06;;;3.71;74.95
33161;BME280;19522;45.656;11.302;2023-12-20T04:46:49;98086.31;;;3.71;75.70
33161;BME280;19522;45.656;11.302;2023-12-20T04:49:15;98093.81;;;4.04;74.97
33161;BME280;19522;45.656;11.302;2023-12-20T04:51:40;98091.88;;;4.14;74.76
33161;BME280;19522;45.656;11.302;2023-12-20T04:54:06;98082.19;;;3.59;76.20
33161;BME280;19522;45.656;11.302;2023-12-20T04:56:32;98082.41;;;3.48;77.35
33161;BME280;19522;45.656;11.302;2023-12-20T04:58:58;98082.66;;;3.54;77.50
33161;BME280;19522;45.656;11.302;2023-12-20T05:01:24;98000.47;;;3.07;77.96
33161;BME280;19522;45.656;11.302;2023-12-20T05:03:50;98061.22;;;3.45;78.02
33161;BME280;19522;45.656;11.302;2023-12-20T05:06:15;98071.38;;;3.51;78.12
33161;BME280;19522;45.656;11.302;2023-12-20T05:08:41;98078.72;;;4.03;75.93
33161;BME280;19522;45.656;11.302;2023-12-20T05:11:06;98080.06;;;4.25;74.56
33161;BME280;19522;45.656;11.302;2023-12-20T05:13:32;98038.47;;;4.11;74.08
33161;BME280;19522;45.656;11.302;2023-12-20T05:15:57;98057.22;;;4.03;73.80
33161;BME280;19522;45.656;11.302;2023-12-20T05:18:23;98042.41;;;3.81;74.43
33161;BME280;19522;45.656;11.302;2023-12-20T05:20:49;98086.78;;;3.85;75.42
33161;BME280;19522;45.656;11.302;2023-12-20T05:23:15;98015.59;;;3.45;76.16
33161;BME280;19522;45.656;11.302;2023-12-20T05:25:41;98084.09;;;3.85;76.51
33161;BME280;19522;45.656;11.302;2023-12-20T05:28:06;98067.06;;;3.76;76.51
33161;BME280;19522;45.656;11.302;2023-12-20T05:30:32;98048.19;;;3.86;75.43
33161;BME280;19522;45.656;11.302;2023-12-20T05:32:57;98072.13;;;3.97;75.73
33161;BME280;19522;45.656;11.302;2023-12-20T05:35:23;98081.13;;;3.70;76.85
33161;BME280;19522;45.656;11.302;2023-12-20T05:37:49;98045.66;;;3.48;77.65
33161;BME280;19522;45.656;11.302;2023-12-20T05:40:15;98075.50;;;3.81;77.37
33161;BME280;19522;45.656;11.302;2023-12-20T05:42:40;98075.00;;;4.22;75.57
33161;BME280;19522;45.656;11.302;2023-12-20T05:45:06;98047.00;;;4.07;74.93
33161;BME280;19522;45.656;11.302;2023-12-20T05:47:32;98046.09;;;3.98;75.64
33161;BME280;19522;45.656;11.302;2023-12-20T05:49:57;98055.25;;;3.87;76.20
33161;BME280;19522;45.656;11.302;2023-12-20T05:52:23;98019.13;;;3.63;76.45
33161;BME280;19522;45.656;11.302;2023-12-20T05:54:48;98061.91;;;3.83;77.06
33161;BME280;19522;45.656;11.302;2023-12-20T05:57:14;98003.94;;;3.54;76.42
33161;BME280;19522;45.656;11.302;2023-12-20T05:59:40;98065.41;;;4.01;76.31
33161;BME280;19522;45.656;11.302;2023-12-20T06:02:05;98058.31;;;4.36;75.25
33161;BME280;19522;45.656;11.302;2023-12-20T06:04:31;98044.16;;;4.34;74.04
33161;BME280;19522;45.656;11.302;2023-12-20T06:06:56;98030.88;;;4.07;74.92
33161;BME280;19522;45.656;11.302;2023-12-20T06:09:22;98042.47;;;4.33;73.66
33161;BME280;19522;45.656;11.302;2023-12-20T06:11:47;98053.50;;;4.04;75.40
33161;BME280;19522;45.656;11.302;2023-12-20T06:14:13;98033.06;;;3.85;76.57
33161;BME280;19522;45.656;11.302;2023-12-20T06:16:38;98063.13;;;4.07;76.90
33161;BME280;19522;45.656;11.302;2023-12-20T06:19:04;98034.66;;;3.96;77.44
33161;BME280;19522;45.656;11.302;2023-12-20T06:21:29;98053.69;;;4.55;74.81
33161;BME280;19522;45.656;11.302;2023-12-20T06:23:55;98008.09;;;4.45;73.35
33161;BME280;19522;45.656;11.302;2023-12-20T06:26:20;98028.56;;;4.38;73.13
33161;BME280;19522;45.656;11.302;2023-12-20T06:28:46;98045.63;;;4.29;74.54
33161;BME280;19522;45.656;11.302;2023-12-20T06:31:11;98041.28;;;4.10;75.57
33161;BME280;19522;45.656;11.302;2023-12-20T06:33:37;98041.75;;;4.05;76.45
33161;BME280;19522;45.656;11.302;2023-12-20T06:36:05;98042.25;;;4.00;77.07
33161;BME280;19522;45.656;11.302;2023-12-20T06:38:34;98031.50;;;4.00;77.36
33161;BME280;19522;45.656;11.302;2023-12-20T06:40:59;98012.44;;;4.12;76.73
33161;BME280;19522;45.656;11.302;2023-12-20T06:43:25;98040.72;;;4.85;74.08
33161;BME280;19522;45.656;11.302;2023-12-20T06:45:50;98017.84;;;4.81;73.62
33161;BME280;19522;45.656;11.302;2023-12-20T06:48:16;98029.59;;;4.45;75.02
33161;BME280;19522;45.656;11.302;2023-12-20T06:50:41;98032.56;;;4.08;76.78
33161;BME280;19522;45.656;11.302;2023-12-20T06:53:07;97992.31;;;3.71;78.18
33161;BME280;19522;45.656;11.302;2023-12-20T06:55:36;98016.63;;;3.88;78.02
33161;BME280;19522;45.656;11.302;2023-12-20T06:58:03;98009.47;;;3.97;77.96
33161;BME280;19522;45.656;11.302;2023-12-20T07:00:28;98044.50;;;4.66;76.06
33161;BME280;19522;45.656;11.302;2023-12-20T07:02:54;98006.63;;;4.59;74.72
33161;BME280;19522;45.656;11.302;2023-12-20T07:05:20;98039.59;;;4.96;73.80
33161;BME280;19522;45.656;11.302;2023-12-20T07:07:46;98038.53;;;4.80;73.79
33161;BME280;19522;45.656;11.302;2023-12-20T07:10:13;98045.63;;;4.55;75.45
33161;BME280;19522;45.656;11.302;2023-12-20T07:12:38;98046.06;;;4.42;76.33
33161;BME280;19522;45.656;11.302;2023-12-20T07:15:04;98041.91;;;4.21;76.93
33161;BME280;19522;45.656;11.302;2023-12-20T07:17:31;98008.00;;;4.02;77.44
33161;BME280;19522;45.656;11.302;2023-12-20T07:19:58;98040.69;;;4.42;77.53
33161;BME280;19522;45.656;11.302;2023-12-20T07:22:23;98043.91;;;4.80;75.82
33161;BME280;19522;45.656;11.302;2023-12-20T07:24:49;98034.53;;;4.58;75.10
33161;BME280;19522;45.656;11.302;2023-12-20T07:27:17;98022.53;;;4.44;75.35
33161;BME280;19522;45.656;11.302;2023-12-20T07:29:43;98059.41;;;4.87;75.02
33161;BME280;19522;45.656;11.302;2023-12-20T07:32:08;98045.88;;;5.13;73.99
33161;BME280;19522;45.656;11.302;2023-12-20T07:34:34;98010.88;;;5.05;72.75
33161;BME280;19522;45.656;11.302;2023-12-20T07:36:59;98037.47;;;4.73;74.78
33161;BME280;19522;45.656;11.302;2023-12-20T07:39:25;98057.38;;;4.54;76.97
33161;BME280;19522;45.656;11.302;2023-12-20T07:41:50;98065.50;;;4.36;77.97
33161;BME280;19522;45.656;11.302;2023-12-20T07:44:16;98076.13;;;4.38;79.11
33161;BME280;19522;45.656;11.302;2023-12-20T07:46:41;97990.63;;;4.15;78.83
33161;BME280;19522;45.656;11.302;2023-12-20T07:49:07;98028.59;;;4.20;79.06
33161;BME280;19522;45.656;11.302;2023-12-20T07:51:33;98062.25;;;4.85;77.96
33161;BME280;19522;45.656;11.302;2023-12-20T07:53:59;98055.84;;;4.86;77.84
33161;BME280;19522;45.656;11.302;2023-12-20T07:56:24;98076.75;;;4.92;78.02
33161;BME280;19522;45.656;11.302;2023-12-20T07:58:50;98043.97;;;4.62;78.58
33161;BME280;19522;45.656;11.302;2023-12-20T08:01:16;98090.44;;;4.73;79.59
33161;BME280;19522;45.656;11.302;2023-12-20T08:03:42;98077.91;;;4.55;80.32
33161;BME280;19522;45.656;11.302;2023-12-20T08:06:11;98093.81;;;4.75;80.28
33161;BME280;19522;45.656;11.302;2023-12-20T08:08:36;98096.53;;;4.83;80.50
33161;BME280;19522;45.656;11.302;2023-12-20T08:11:02;98093.38;;;4.88;79.72
33161;BME280;19522;45.656;11.302;2023-12-20T08:13:28;98036.22;;;4.59;79.19
33161;BME280;19522;45.656;11.302;2023-12-20T08:15:53;98097.38;;;5.26;78.22
33161;BME280;19522;45.656;11.302;2023-12-20T08:18:19;98103.28;;;5.89;74.89
33161;BME280;19522;45.656;11.302;2023-12-20T08:20:44;98080.66;;;5.82;74.33
33161;BME280;19522;45.656;11.302;2023-12-20T08:23:10;98095.47;;;5.61;74.93
33161;BME280;19522;45.656;11.302;2023-12-20T08:25:35;98089.91;;;5.46;75.78
33161;BME280;19522;45.656;11.302;2023-12-20T08:28:02;98087.84;;;5.40;76.30
33161;BME280;19522;45.656;11.302;2023-12-20T08:30:28;98003.75;;;4.95;76.15
33161;BME280;19522;45.656;11.302;2023-12-20T08:32:55;98013.22;;;5.08;75.80
33161;BME280;19522;45.656;11.302;2023-12-20T08:35:20;98092.44;;;5.73;75.72
33161;BME280;19522;45.656;11.302;2023-12-20T08:37:46;98089.63;;;6.16;73.19
33161;BME280;19522;45.656;11.302;2023-12-20T08:40:11;98069.94;;;6.07;73.16
33161;BME280;19522;45.656;11.302;2023-12-20T08:42:37;98081.72;;;6.22;nan
33161;BME280;19522;45.656;11.302;2023-12-20T08:45:03;98081.06;;;6.29;70.54
33161;BME280;19522;45.656;11.302;2023-12-20T08:47:29;98019.53;;;5.83;70.41
33161;BME280;19522;45.656;11.302;2023-12-20T08:49:55;98090.66;;;6.23;70.64
33161;BME280;19522;45.656;11.302;2023-12-20T08:52:23;98050.88;;;5.84;75.47
33161;BME280;19522;45.656;11.302;2023-12-20T08:54:52;98047.00;;;5.86;75.41
33161;BME280;19522;45.656;11.302;2023-12-20T08:57:19;98048.19;;;5.92;75.33
33161;BME280;19522;45.656;11.302;2023-12-20T08:59:47;98085.28;;;6.15;75.23
33161;BME280;19522;45.656;11.302;2023-12-20T09:02:13;98099.75;;;6.47;74.28
33161;BME280;19522;45.656;11.302;2023-12-20T09:04:39;98083.13;;;6.91;71.00
33161;BME280;19522;45.656;11.302;2023-12-20T09:07:04;98065.00;;;6.35;72.87
33161;BME280;19522;45.656;11.302;2023-12-20T09:09:30;98090.13;;;6.44;73.56
33161;BME280;19522;45.656;11.302;2023-12-20T09:11:57;98088.44;;;6.43;74.25
33161;BME280;19522;45.656;11.302;2023-12-20T09:14:23;98085.94;;;7.06;73.10
33161;BME280;19522;45.656;11.302;2023-12-20T09:16:48;98079.69;;;7.06;72.45
33161;BME280;19522;45.656;11.302;2023-12-20T09:19:19;98081.50;;;6.57;74.89
33161;BME280;19522;45.656;11.302;2023-12-20T09:21:44;98074.47;;;6.31;76.88
33161;BME280;19522;45.656;11.302;2023-12-20T09:24:10;98043.97;;;6.22;76.23
33161;BME280;19522;45.656;11.302;2023-12-20T09:26:35;98065.38;;;6.32;77.08
33161;BME280;19522;45.656;11.302;2023-12-20T09:29:01;98024.63;;;6.11;76.98
33161;BME280;19522;45.656;11.302;2023-12-20T09:31:26;98063.50;;;6.41;77.05
33161;BME280;19522;45.656;11.302;2023-12-20T09:33:52;98010.72;;;6.47;75.73
33161;BME280;19522;45.656;11.302;2023-12-20T09:36:18;98014.56;;;6.61;75.32
33161;BME280;19522;45.656;11.302;2023-12-20T09:38:43;98041.88;;;7.37;73.51
33161;BME280;19522;45.656;11.302;2023-12-20T09:41:08;98016.19;;;7.41;73.80
33161;BME280;19522;45.656;11.302;2023-12-20T09:43:37;98053.66;;;7.13;74.33
33161;BME280;19522;45.656;11.302;2023-12-20T09:46:05;98046.53;;;6.80;76.56
33161;BME280;19522;45.656;11.302;2023-12-20T09:48:32;98049.56;;;6.85;77.46
33161;BME280;19522;45.656;11.302;2023-12-20T09:50:58;98023.13;;;6.73;77.35
33161;BME280;19522;45.656;11.302;2023-12-20T09:53:24;98042.03;;;7.12;76.05
33161;BME280;19522;45.656;11.302;2023-12-20T09:55:57;98053.69;;;7.05;76.91
33161;BME280;19522;45.656;11.302;2023-12-20T09:58:24;98057.41;;;7.04;77.09
33161;BME280;19522;45.656;11.302;2023-12-20T10:00:50;98051.03;;;7.28;76.06
33161;BME280;19522;45.656;11.302;2023-12-20T10:03:17;98052.91;;;7.27;76.10
33161;BME280;19522;45.656;11.302;2023-12-20T10:05:44;98050.31;;;7.42;76.05
33161;BME280;19522;45.656;11.302;2023-12-20T10:08:12;98043.88;;;8.13;74.51
33161;BME280;19522;45.656;11.302;2023-12-20T10:10:37;98018.22;;;7.86;75.05
33161;BME280;19522;45.656;11.302;2023-12-20T10:13:07;98035.53;;;7.76;75.73
33161;BME280;19522;45.656;11.302;2023-12-20T10:15:34;97999.66;;;7.44;75.82
33161;BME280;19522;45.656;11.302;2023-12-20T10:18:01;98027.31;;;7.46;76.51
33161;BME280;19522;45.656;11.302;2023-12-20T10:20:27;97952.81;;;6.97;77.44
33161;BME280;19522;45.656;11.302;2023-12-20T10:22:58;97978.56;;;7.40;76.37
33161;BME280;19522;45.656;11.302;2023-12-20T10:25:24;97999.53;;;7.61;74.51
33161;BME280;19522;45.656;11.302;2023-12-20T10:30:37;98005.59;;;7.63;74.83
33161;BME280;19522;45.656;11.302;2023-12-20T10:33:02;98011.81;;;7.87;72.87
33161;BME280;19522;45.656;11.302;2023-12-20T10:35:28;98016.69;;;8.45;67.70
33161;BME280;19522;45.656;11.302;2023-12-20T10:37:56;98017.78;;;8.35;67.93
33161;BME280;19522;45.656;11.302;2023-12-20T10:40:22;98005.53;;;8.63;62.07
33161;BME280;19522;45.656;11.302;2023-12-20T10:42:48;98000.78;;;8.80;60.69
33161;BME280;19522;45.656;11.302;2023-12-20T10:45:16;97989.56;;;8.68;64.07
33161;BME280;19522;45.656;11.302;2023-12-20T10:47:46;97988.63;;;8.61;64.36
33161;BME280;19522;45.656;11.302;2023-12-20T10:50:12;97958.69;;;7.79;66.22
33161;BME280;19522;45.656;11.302;2023-12-20T10:52:37;97973.44;;;7.68;68.88
33161;BME280;19522;45.656;11.302;2023-12-20T10:55:04;97988.25;;;7.95;67.98
33161;BME280;19522;45.656;11.302;2023-12-20T10:57:30;97988.34;;;7.87;68.25
33161;BME280;19522;45.656;11.302;2023-12-20T11:00:00;97995.34;;;7.97;66.89
33161;BME280;19522;45.656;11.302;2023-12-20T11:08:08;97996.19;;;7.97;68.97
33161;BME280;19522;45.656;11.302;2023-12-20T11:10:44;97935.69;;;7.60;69.12
33161;BME280;19522;45.656;11.302;2023-12-20T11:13:43;97987.25;;;7.97;68.72
33161;BME280;19522;45.656;11.302;2023-12-20T11:16:10;97970.34;;;7.94;68.01
33161;BME280;19522;45.656;11.302;2023-12-20T11:18:35;97971.19;;;7.95;67.38
33161;BME280;19522;45.656;11.302;2023-12-20T11:21:02;97980.97;;;8.64;66.33
33161;BME280;19522;45.656;11.302;2023-12-20T11:23:30;97947.38;;;8.58;66.65
33161;BME280;19522;45.656;11.302;2023-12-20T11:25:58;97942.03;;;8.20;67.38
33161;BME280;19522;45.656;11.302;2023-12-20T11:28:25;97985.06;;;8.30;68.59
33161;BME280;19522;45.656;11.302;2023-12-20T11:30:55;97981.63;;;7.98;68.89
33161;BME280;19522;45.656;11.302;2023-12-20T11:33:25;97983.59;;;8.04;69.89
33161;BME280;19522;45.656;11.302;2023-12-20T11:35:51;97965.13;;;7.93;71.08
33161;BME280;19522;45.656;11.302;2023-12-20T11:38:20;97970.75;;;8.06;71.36
33161;BME280;19522;45.656;11.302;2023-12-20T11:40:50;97936.78;;;7.89;71.38
33161;BME280;19522;45.656;11.302;2023-12-20T11:46:07;97950.84;;;8.67;68.36
33161;BME280;19522;45.656;11.302;2023-12-20T11:48:38;97941.56;;;8.32;68.65
33161;BME280;19522;45.656;11.302;2023-12-20T11:51:12;97925.91;;;8.27;69.39
33161;BME280;19522;45.656;11.302;2023-12-20T11:53:39;97940.00;;;8.37;69.25
33161;BME280;19522;45.656;11.302;2023-12-20T11:56:08;97970.25;;;8.56;69.11
33161;BME280;19522;45.656;11.302;2023-12-20T11:58:34;97959.69;;;8.46;68.46
33161;BME280;19522;45.656;11.302;2023-12-20T12:01:00;97933.91;;;8.35;67.98
33161;BME280;19522;45.656;11.302;2023-12-20T12:03:27;97958.03;;;8.60;67.47
33161;BME280;19522;45.656;11.302;2023-12-20T12:05:53;97942.41;;;8.62;67.33
33161;BME280;19522;45.656;11.302;2023-12-20T12:08:19;97945.47;;;8.89;66.99
33161;BME280;19522;45.656;11.302;2023-12-20T12:10:45;97944.81;;;8.87;67.09
33161;BME280;19522;45.656;11.302;2023-12-20T12:13:11;97932.31;;;8.86;66.92
33161;BME280;19522;45.656;11.302;2023-12-20T12:15:37;97937.16;;;8.91;66.56
33161;BME280;19522;45.656;11.302;2023-12-20T12:18:03;97946.56;;;8.95;65.43
33161;BME280;19522;45.656;11.302;2023-12-20T12:20:30;97933.31;;;9.43;64.86
33161;BME280;19522;45.656;11.302;2023-12-20T12:23:02;97925.16;;;9.37;66.56
33161;BME280;19522;45.656;11.302;2023-12-20T12:25:32;97933.47;;;9.13;66.67
33161;BME280;19522;45.656;11.302;2023-12-20T12:28:00;97909.72;;;8.94;66.32
33161;BME280;19522;45.656;11.302;2023-12-20T12:30:26;97922.16;;;9.10;66.46
33161;BME280;19522;45.656;11.302;2023-12-20T12:32:52;97919.66;;;9.08;66.88
33161;BME280;19522;45.656;11.302;2023-12-20T12:35:19;97879.34;;;8.62;67.20
33161;BME280;19522;45.656;11.302;2023-12-20T12:37:44;97898.06;;;8.78;67.63
33161;BME280;19522;45.656;11.302;2023-12-20T12:40:11;97927.78;;;9.08;66.97
33161;BME280;19522;45.656;11.302;2023-12-20T12:42:38;97921.28;;;9.24;65.40
33161;BME280;19522;45.656;11.302;2023-12-20T12:45:04;97918.63;;;9.31;65.34
33161;BME280;19522;45.656;11.302;2023-12-20T12:47:30;97911.13;;;9.55;65.24
33161;BME280;19522;45.656;11.302;2023-12-20T12:49:56;97896.06;;;9.74;64.35
33161;BME280;19522;45.656;11.302;2023-12-20T12:52:21;97896.16;;;9.87;62.41
33161;BME280;19522;45.656;11.302;2023-12-20T12:54:48;97902.13;;;10.04;58.87
33161;BME280;19522;45.656;11.302;2023-12-20T12:57:14;97894.03;;;10.11;58.01
33161;BME280;19522;45.656;11.302;2023-12-20T12:59:43;97894.09;;;10.18;57.85
33161;BME280;19522;45.656;11.302;2023-12-20T13:02:11;97892.75;;;10.07;58.39
33161;BME280;19522;45.656;11.302;2023-12-20T13:04:36;97887.44;;;10.62;60.35
33161;BME280;19522;45.656;11.302;2023-12-20T13:07:02;97837.78;;;10.75;60.27
33161;BME280;19522;45.656;11.302;2023-12-20T13:09:27;97872.81;;;11.45;56.16